createdAt,value
2022-08-08T00:00:52.904Z,16.78
2022-08-08T00:00:52.967Z,16.75
2022-08-08T00:01:10.253Z,16.74
2022-08-08T00:02:31.511Z,16.68
2022-08-08T00:03:20.419Z,16.62
2022-08-08T00:04:10.254Z,16.60
2022-08-08T00:05:10.207Z,16.58
2022-08-08T00:06:09.179Z,16.55
2022-08-08T00:07:12.858Z,16.56
2022-08-08T00:08:09.156Z,16.55
2022-08-08T00:09:09.154Z,16.55
2022-08-08T00:10:10.739Z,16.53
2022-08-08T00:11:13.261Z,16.52
2022-08-08T00:12:10.697Z,16.49
2022-08-08T00:13:10.311Z,16.50
2022-08-08T00:14:17.549Z,16.56
2022-08-08T00:15:10.086Z,16.59
2022-08-08T00:16:09.057Z,16.62
2022-08-08T00:17:23.587Z,16.58
2022-08-08T00:18:10.066Z,16.53
2022-08-08T00:19:09.026Z,16.50
2022-08-08T00:20:14.619Z,16.45
2022-08-08T00:21:10.023Z,16.41
2022-08-08T00:22:10.555Z,16.35
2022-08-08T00:23:08.980Z,16.33
2022-08-08T00:24:08.989Z,16.33
2022-08-08T00:25:08.959Z,16.26
2022-08-08T00:26:08.937Z,16.22
2022-08-08T00:27:08.927Z,16.16
2022-08-08T00:28:34.397Z,16.14
2022-08-08T00:29:09.971Z,16.14
2022-08-08T00:30:11.295Z,16.12
2022-08-08T00:32:28.140Z,16.07
2022-08-08T00:32:29.033Z,16.07
2022-08-08T00:33:09.883Z,16.03
2022-08-08T00:34:17.440Z,15.99
2022-08-08T00:35:09.869Z,15.97
2022-08-08T00:36:09.833Z,15.96
2022-08-08T00:37:44.990Z,15.92
2022-08-08T00:38:16.769Z,15.86
2022-08-08T00:41:06.006Z,15.86
2022-08-08T00:41:06.805Z,15.84
2022-08-08T00:41:14.532Z,15.78
2022-08-08T00:42:20.043Z,15.76
2022-08-08T00:43:19.826Z,15.75
2022-08-08T00:44:09.755Z,15.72
2022-08-08T00:45:20.963Z,15.64
2022-08-08T00:46:16.509Z,15.61
2022-08-08T00:47:19.459Z,15.57
2022-08-08T00:48:29.407Z,15.56
2022-08-08T00:49:22.497Z,15.56
2022-08-08T00:50:09.698Z,15.56
2022-08-08T00:51:09.714Z,15.52
2022-08-08T00:52:08.654Z,15.48
2022-08-08T00:53:14.085Z,15.56
2022-08-08T00:54:15.640Z,15.59
2022-08-08T00:55:09.634Z,15.52
2022-08-08T00:56:11.233Z,15.51
2022-08-08T00:57:08.676Z,15.54
2022-08-08T00:58:13.675Z,15.52
2022-08-08T00:59:09.577Z,15.51
2022-08-08T01:00:08.595Z,15.49
2022-08-08T01:01:08.584Z,15.51
2022-08-08T01:03:18.244Z,15.51
2022-08-08T01:03:58.583Z,15.49
2022-08-08T01:04:09.774Z,15.49
2022-08-08T01:05:08.538Z,15.51
2022-08-08T01:06:08.545Z,15.49
2022-08-08T01:07:08.489Z,15.43
2022-08-08T01:08:08.555Z,15.42
2022-08-08T01:09:36.920Z,15.39
2022-08-08T01:10:09.442Z,15.38
2022-08-08T01:11:08.442Z,15.36
2022-08-08T01:12:08.446Z,15.35
2022-08-08T01:13:08.470Z,15.30
2022-08-08T01:14:08.614Z,15.28
2022-08-08T01:15:09.412Z,15.28
2022-08-08T01:16:08.479Z,15.33
2022-08-08T01:17:08.415Z,15.33
2022-08-08T01:18:16.117Z,15.33
2022-08-08T01:19:11.727Z,15.36
2022-08-08T01:20:09.328Z,15.36
2022-08-08T01:21:08.639Z,15.39
2022-08-08T01:22:15.626Z,15.46
2022-08-08T01:24:02.353Z,15.48
2022-08-08T01:24:13.738Z,15.51
2022-08-08T01:25:09.279Z,15.54
2022-08-08T01:26:11.429Z,15.57
2022-08-08T01:27:10.805Z,15.60
2022-08-08T01:28:09.254Z,15.59
2022-08-08T01:29:09.239Z,15.56
2022-08-08T01:30:08.219Z,15.59
2022-08-08T01:31:10.508Z,15.59
2022-08-08T01:32:16.161Z,15.54
2022-08-08T01:33:23.704Z,15.51
2022-08-08T01:34:09.180Z,15.51
2022-08-08T01:35:11.761Z,15.51
2022-08-08T01:36:08.171Z,15.52
2022-08-08T01:37:08.144Z,15.52
2022-08-08T01:38:09.152Z,15.49
2022-08-08T01:39:08.133Z,15.46
2022-08-08T01:40:14.667Z,15.54
2022-08-08T01:41:11.616Z,15.54
2022-08-08T01:42:09.121Z,15.52
2022-08-08T01:43:08.092Z,15.52
2022-08-08T01:44:08.093Z,15.52
2022-08-08T01:45:10.041Z,15.49
2022-08-08T01:46:09.074Z,15.51
2022-08-08T01:48:11.578Z,15.52
2022-08-08T01:48:16.573Z,15.49
2022-08-08T01:49:11.040Z,15.52
2022-08-08T01:50:09.015Z,15.54
2022-08-08T01:51:30.475Z,15.54
2022-08-08T01:52:51.815Z,15.52
2022-08-08T01:55:14.727Z,15.52
2022-08-08T01:55:17.507Z,15.57
2022-08-08T01:55:19.617Z,15.57
2022-08-08T01:56:30.643Z,15.59
2022-08-08T01:57:08.920Z,15.57
2022-08-08T01:58:12.000Z,15.54
2022-08-08T01:59:08.027Z,15.51
2022-08-08T02:00:07.886Z,15.48
2022-08-08T02:01:15.905Z,15.45
2022-08-08T02:02:09.278Z,15.39
2022-08-08T02:03:07.885Z,15.39
2022-08-08T02:04:08.848Z,15.36
2022-08-08T02:05:07.838Z,15.36
2022-08-08T02:06:07.818Z,15.33
2022-08-08T02:07:07.842Z,15.33
2022-08-08T02:08:08.680Z,15.31
2022-08-08T02:09:16.303Z,15.30
2022-08-08T02:10:11.659Z,15.28
2022-08-08T02:11:07.767Z,15.27
2022-08-08T02:12:08.804Z,15.27
2022-08-08T02:13:07.751Z,15.27
2022-08-08T02:14:08.750Z,15.26
2022-08-08T02:15:11.467Z,15.24
2022-08-08T02:16:07.749Z,15.26
2022-08-08T02:17:10.721Z,15.24
2022-08-08T02:18:10.355Z,15.30
2022-08-08T02:19:26.800Z,15.28
2022-08-08T02:20:15.788Z,15.19
2022-08-08T02:21:12.997Z,15.15
2022-08-08T02:22:08.647Z,15.13
2022-08-08T02:23:07.820Z,15.09
2022-08-08T02:24:08.670Z,15.06
2022-08-08T02:25:11.757Z,15.05
2022-08-08T02:26:10.144Z,15.06
2022-08-08T02:27:07.592Z,15.08
2022-08-08T02:28:07.581Z,15.03
2022-08-08T02:29:07.572Z,15.02
2022-08-08T02:30:21.189Z,15.03
2022-08-08T02:31:43.431Z,15.08
2022-08-08T02:32:08.644Z,15.08
2022-08-08T02:33:07.512Z,15.06
2022-08-08T02:34:09.004Z,15.08
2022-08-08T02:35:11.659Z,15.11
2022-08-08T02:36:07.505Z,15.13
2022-08-08T02:37:09.930Z,15.13
2022-08-08T02:38:09.118Z,15.19
2022-08-08T02:39:40.596Z,15.21
2022-08-08T02:40:08.840Z,15.23
2022-08-08T02:41:17.882Z,15.23
2022-08-08T02:42:10.731Z,15.23
2022-08-08T02:44:37.848Z,15.20
2022-08-08T02:44:38.804Z,15.24
2022-08-08T02:45:09.679Z,15.17
2022-08-08T02:46:08.366Z,15.17
2022-08-08T02:47:07.377Z,15.15
2022-08-08T02:48:07.345Z,15.13
2022-08-08T02:49:07.345Z,15.15
2022-08-08T02:50:08.355Z,15.19
2022-08-08T02:51:11.825Z,15.23
2022-08-08T02:52:32.367Z,15.24
2022-08-08T02:53:08.306Z,15.24
2022-08-08T02:54:07.277Z,15.21
2022-08-08T02:55:10.466Z,15.19
2022-08-08T02:56:08.443Z,15.17
2022-08-08T02:57:12.252Z,15.17
2022-08-08T02:58:08.275Z,15.13
2022-08-08T02:59:25.917Z,15.11
2022-08-08T03:00:26.441Z,15.09
2022-08-08T03:01:08.786Z,15.09
2022-08-08T03:02:08.399Z,15.09
2022-08-08T03:03:08.191Z,15.12
2022-08-08T03:05:05.357Z,15.13
2022-08-08T03:05:10.884Z,15.13
2022-08-08T03:06:07.253Z,15.12
2022-08-08T03:07:07.469Z,15.13
2022-08-08T03:08:07.833Z,15.12
2022-08-08T03:09:07.128Z,15.09
2022-08-08T03:10:07.110Z,15.09
2022-08-08T03:11:07.102Z,15.09
2022-08-08T03:12:08.268Z,15.09
2022-08-08T03:13:33.939Z,15.09
2022-08-08T03:15:57.188Z,15.05
2022-08-08T03:16:01.150Z,15.01
2022-08-08T03:16:08.189Z,15.02
2022-08-08T03:17:07.020Z,15.12
2022-08-08T03:18:07.186Z,15.17
2022-08-08T03:19:07.022Z,15.13
2022-08-08T03:20:08.290Z,15.09
2022-08-08T03:21:10.156Z,15.06
2022-08-08T03:22:38.343Z,15.05
2022-08-08T03:23:07.960Z,15.01
2022-08-08T03:24:06.960Z,14.98
2022-08-08T03:25:09.222Z,14.95
2022-08-08T03:26:07.926Z,14.98
2022-08-08T03:27:07.860Z,14.94
2022-08-08T03:28:06.925Z,14.93
2022-08-08T03:29:18.562Z,14.88
2022-08-08T03:30:07.932Z,14.87
2022-08-08T03:31:22.510Z,14.86
2022-08-08T03:32:08.680Z,14.86
2022-08-08T03:33:07.801Z,14.87
2022-08-08T03:34:07.833Z,14.88
2022-08-08T03:35:09.554Z,14.86
2022-08-08T03:36:09.370Z,14.90
2022-08-08T03:37:10.865Z,14.93
2022-08-08T03:38:58.040Z,14.94
2022-08-08T03:39:15.701Z,14.90
2022-08-08T03:40:10.953Z,14.91
2022-08-08T03:41:08.824Z,14.90
2022-08-08T03:42:27.393Z,14.87
2022-08-08T03:43:16.711Z,14.86
2022-08-08T03:44:07.731Z,14.84
2022-08-08T03:46:03.092Z,14.87
2022-08-08T03:46:09.314Z,14.84
2022-08-08T03:47:07.127Z,14.83
2022-08-08T03:48:07.687Z,14.81
2022-08-08T03:49:30.909Z,14.75
2022-08-08T03:50:07.669Z,14.75
2022-08-08T03:51:06.627Z,14.69
2022-08-08T03:52:06.657Z,14.72
2022-08-08T03:53:07.623Z,14.72
2022-08-08T03:54:06.597Z,14.72
2022-08-08T03:55:10.416Z,14.80
2022-08-08T03:56:09.522Z,14.80
2022-08-08T03:58:09.795Z,14.75
2022-08-08T03:58:32.863Z,14.75
2022-08-08T03:59:07.548Z,14.74
2022-08-08T04:00:11.714Z,14.69
2022-08-08T04:01:24.402Z,14.68
2022-08-08T04:02:31.528Z,14.72
2022-08-08T04:03:11.556Z,14.72
2022-08-08T04:04:06.563Z,14.69
2022-08-08T04:05:10.285Z,14.72
2022-08-08T04:06:06.480Z,14.78
2022-08-08T04:07:06.460Z,14.88
2022-08-08T04:08:06.446Z,14.91
2022-08-08T04:09:11.023Z,14.93
2022-08-08T04:10:07.439Z,14.91
2022-08-08T04:11:11.396Z,14.91
2022-08-08T04:12:07.412Z,14.98
2022-08-08T04:13:17.586Z,15.01
2022-08-08T04:14:34.172Z,14.99
2022-08-08T04:15:07.371Z,14.95
2022-08-08T04:16:06.343Z,14.91
2022-08-08T04:17:07.105Z,14.87
2022-08-08T04:18:16.422Z,14.84
2022-08-08T04:19:23.141Z,14.84
2022-08-08T04:20:08.117Z,14.80
2022-08-08T04:21:06.437Z,14.83
2022-08-08T04:22:06.282Z,14.84
2022-08-08T04:23:06.956Z,14.84
2022-08-08T04:24:28.265Z,14.86
2022-08-08T04:25:07.299Z,14.91
2022-08-08T04:26:09.321Z,14.94
2022-08-08T04:27:07.480Z,14.93
2022-08-08T04:28:37.052Z,14.94
2022-08-08T04:29:07.207Z,14.95
2022-08-08T04:30:18.181Z,14.93
2022-08-08T04:31:07.217Z,14.93
2022-08-08T04:32:06.872Z,14.91
2022-08-08T04:33:06.157Z,14.91
2022-08-08T04:34:06.157Z,14.93
2022-08-08T04:35:06.136Z,14.93
2022-08-08T04:36:07.127Z,14.91
2022-08-08T04:37:06.138Z,14.91
2022-08-08T04:38:06.096Z,14.91
2022-08-08T04:40:04.290Z,14.93
2022-08-08T04:40:10.685Z,14.93
2022-08-08T04:41:07.608Z,14.90
2022-08-08T04:42:06.048Z,14.91
2022-08-08T04:43:08.852Z,14.94
2022-08-08T04:44:06.029Z,14.95
2022-08-08T04:45:06.017Z,14.98
2022-08-08T04:46:06.019Z,14.99
2022-08-08T04:47:06.037Z,14.95
2022-08-08T04:48:06.981Z,14.90
2022-08-08T04:49:06.328Z,14.91
2022-08-08T04:50:06.980Z,14.90
2022-08-08T04:51:06.999Z,14.94
2022-08-08T04:52:05.942Z,15.01
2022-08-08T04:53:14.129Z,15.05
2022-08-08T04:54:38.786Z,15.06
2022-08-08T04:55:06.900Z,15.11
2022-08-08T04:56:05.889Z,15.12
2022-08-08T04:57:05.881Z,15.17
2022-08-08T04:58:09.501Z,15.19
2022-08-08T04:59:06.860Z,15.20
2022-08-08T05:00:05.877Z,15.23
2022-08-08T05:01:10.706Z,15.27
2022-08-08T05:02:06.927Z,15.27
2022-08-08T05:03:05.874Z,15.31
2022-08-08T05:04:08.326Z,15.35
2022-08-08T05:05:05.790Z,15.38
2022-08-08T05:06:13.126Z,15.39
2022-08-08T05:07:06.763Z,15.43
2022-08-08T05:08:05.772Z,15.45
2022-08-08T05:09:05.997Z,15.46
2022-08-08T05:10:06.825Z,15.48
2022-08-08T05:11:05.763Z,15.49
2022-08-08T05:12:05.713Z,15.51
2022-08-08T05:13:05.806Z,15.52
2022-08-08T05:14:06.691Z,15.52
2022-08-08T05:15:05.673Z,15.54
2022-08-08T05:16:54.787Z,15.54
2022-08-08T05:17:08.999Z,15.57
2022-08-08T05:18:05.668Z,15.60
2022-08-08T05:19:05.671Z,15.63
2022-08-08T05:20:13.127Z,15.64
2022-08-08T05:21:06.615Z,15.67
2022-08-08T05:22:05.609Z,15.68
2022-08-08T05:23:05.607Z,15.72
2022-08-08T05:24:10.484Z,15.76
2022-08-08T05:25:06.581Z,15.79
2022-08-08T05:26:05.556Z,15.82
2022-08-08T05:27:05.564Z,15.82
2022-08-08T05:28:05.533Z,15.85
2022-08-08T05:29:06.344Z,15.89
2022-08-08T05:30:05.507Z,15.96
2022-08-08T05:31:19.410Z,15.99
2022-08-08T05:32:07.753Z,16.03
2022-08-08T05:33:05.496Z,16.06
2022-08-08T05:34:05.457Z,16.06
2022-08-08T05:35:05.723Z,16.07
2022-08-08T05:36:05.438Z,16.15
2022-08-08T05:37:15.817Z,16.18
2022-08-08T05:38:11.498Z,16.20
2022-08-08T05:39:06.419Z,16.23
2022-08-08T05:40:05.407Z,16.26
2022-08-08T05:41:05.690Z,16.31
2022-08-08T05:42:05.393Z,16.38
2022-08-08T05:43:38.586Z,16.41
2022-08-08T05:44:06.370Z,16.45
2022-08-08T05:45:24.606Z,16.50
2022-08-08T05:46:08.276Z,16.55
2022-08-08T05:47:05.322Z,16.55
2022-08-08T05:48:08.705Z,16.55
2022-08-08T05:49:10.937Z,16.59
2022-08-08T05:50:06.295Z,16.65
2022-08-08T05:51:13.557Z,16.68
2022-08-08T05:52:06.269Z,16.74
2022-08-08T05:53:54.220Z,16.83
2022-08-08T05:54:27.065Z,16.86
2022-08-08T05:55:09.659Z,16.93
2022-08-08T05:56:09.726Z,16.95
2022-08-08T05:57:06.205Z,16.99
2022-08-08T05:58:17.268Z,17.03
2022-08-08T05:59:06.184Z,17.08
2022-08-08T06:00:25.037Z,17.10
2022-08-08T06:01:06.525Z,17.20
2022-08-08T06:02:05.146Z,17.29
2022-08-08T06:03:05.216Z,17.36
2022-08-08T06:04:08.452Z,17.41
2022-08-08T06:05:24.335Z,17.51
2022-08-08T06:06:06.199Z,17.62
2022-08-08T06:07:05.105Z,17.74
2022-08-08T06:08:09.721Z,17.82
2022-08-08T06:09:59.209Z,17.76
2022-08-08T06:10:06.464Z,17.79
2022-08-08T06:11:05.076Z,17.81
2022-08-08T06:12:05.033Z,17.84
2022-08-08T06:13:05.076Z,17.97
2022-08-08T06:14:05.006Z,18.12
2022-08-08T06:15:06.417Z,18.17
2022-08-08T06:16:04.976Z,18.07
2022-08-08T06:17:04.976Z,18.15
2022-08-08T06:18:20.266Z,18.25
2022-08-08T06:19:07.272Z,18.25
2022-08-08T06:20:04.949Z,18.19
2022-08-08T06:21:11.571Z,18.27
2022-08-08T06:22:32.273Z,18.39
2022-08-08T06:23:05.908Z,18.55
2022-08-08T06:24:13.706Z,18.73
2022-08-08T06:25:05.908Z,18.86
2022-08-08T06:26:44.986Z,18.90
2022-08-08T06:27:05.859Z,18.82
2022-08-08T06:28:04.841Z,18.82
2022-08-08T06:29:26.211Z,18.91
2022-08-08T06:30:07.194Z,18.92
2022-08-08T06:31:04.813Z,19.02
2022-08-08T06:32:11.534Z,19.15
2022-08-08T06:33:05.812Z,19.28
2022-08-08T06:34:26.095Z,19.32
2022-08-08T06:36:04.441Z,19.24
2022-08-08T06:36:09.700Z,19.23
2022-08-08T06:37:25.035Z,19.28
2022-08-08T06:38:14.200Z,19.10
2022-08-08T06:39:06.983Z,19.21
2022-08-08T06:40:04.832Z,19.33
2022-08-08T06:41:04.724Z,19.48
2022-08-08T06:42:04.684Z,19.38
2022-08-08T06:43:04.664Z,19.42
2022-08-08T06:44:04.672Z,19.51
2022-08-08T06:45:05.770Z,19.35
2022-08-08T06:46:04.654Z,19.28
2022-08-08T06:47:04.684Z,19.28
2022-08-08T06:48:04.834Z,19.38
2022-08-08T06:49:04.603Z,19.47
2022-08-08T06:50:04.655Z,19.60
2022-08-08T06:51:07.824Z,19.55
2022-08-08T06:52:04.578Z,19.36
2022-08-08T06:53:13.982Z,19.32
2022-08-08T06:54:05.604Z,19.47
2022-08-08T06:55:04.528Z,19.57
2022-08-08T06:56:04.536Z,19.70
2022-08-08T06:57:04.529Z,19.50
2022-08-08T06:58:04.783Z,19.48
2022-08-08T06:59:09.948Z,19.68
2022-08-08T07:00:12.110Z,19.91
2022-08-08T07:01:11.551Z,20.10
2022-08-08T07:02:27.351Z,20.23
2022-08-08T07:03:05.499Z,20.21
2022-08-08T07:04:36.997Z,20.13
2022-08-08T07:05:05.681Z,20.24
2022-08-08T07:06:04.409Z,20.34
2022-08-08T07:07:10.536Z,20.46
2022-08-08T07:08:05.389Z,20.43
2022-08-08T07:09:04.379Z,20.41
2022-08-08T07:10:08.119Z,20.21
2022-08-08T07:11:04.386Z,20.24
2022-08-08T07:12:04.333Z,20.30
2022-08-08T07:13:04.349Z,20.41
2022-08-08T07:14:04.310Z,20.58
2022-08-08T07:15:04.573Z,20.66
2022-08-08T07:16:11.986Z,20.77
2022-08-08T07:17:09.484Z,20.58
2022-08-08T07:18:36.876Z,20.65
2022-08-08T07:19:05.262Z,20.80
2022-08-08T07:20:04.264Z,20.86
2022-08-08T07:21:04.720Z,21.02
2022-08-08T07:22:05.071Z,21.02
2022-08-08T07:23:04.731Z,20.93
2022-08-08T07:24:04.613Z,21.05
2022-08-08T07:25:06.724Z,21.17
2022-08-08T07:26:04.174Z,21.19
2022-08-08T07:27:04.933Z,21.19
2022-08-08T07:28:07.920Z,21.34
2022-08-08T07:29:06.008Z,21.35
2022-08-08T07:30:12.044Z,21.42
2022-08-08T07:31:05.125Z,21.44
2022-08-08T07:32:04.117Z,21.30
2022-08-08T07:33:04.123Z,21.06
2022-08-08T07:34:04.087Z,20.95
2022-08-08T07:35:06.438Z,21.02
2022-08-08T07:36:04.061Z,21.16
2022-08-08T07:37:11.912Z,21.41
2022-08-08T07:38:18.418Z,21.59
2022-08-08T07:39:05.085Z,21.66
2022-08-08T07:40:05.100Z,21.76
2022-08-08T07:41:04.601Z,21.90
2022-08-08T07:42:05.243Z,21.97
2022-08-08T07:43:09.289Z,22.07
2022-08-08T07:44:09.786Z,21.92
2022-08-08T07:45:04.972Z,21.99
2022-08-08T07:46:17.811Z,21.90
2022-08-08T07:47:04.941Z,21.69
2022-08-08T07:48:05.228Z,21.82
2022-08-08T07:49:03.952Z,22.01
2022-08-08T07:50:03.963Z,22.10
2022-08-08T07:51:04.508Z,22.07
2022-08-08T07:52:03.890Z,22.16
2022-08-08T07:53:03.872Z,22.22
2022-08-08T07:54:03.966Z,22.31
2022-08-08T07:55:03.854Z,22.27
2022-08-08T07:56:03.863Z,22.35
2022-08-08T07:57:03.837Z,22.49
2022-08-08T07:58:04.838Z,22.64
2022-08-08T07:59:03.814Z,22.57
2022-08-08T08:00:03.794Z,22.60
2022-08-08T08:01:03.846Z,22.72
2022-08-08T08:02:35.397Z,22.90
2022-08-08T08:03:04.756Z,22.92
2022-08-08T08:04:03.825Z,22.84
2022-08-08T08:05:03.917Z,22.92
2022-08-08T08:06:03.734Z,23.08
2022-08-08T08:07:03.704Z,23.27
2022-08-08T08:08:03.716Z,23.29
2022-08-08T08:09:03.691Z,23.24
2022-08-08T08:10:03.676Z,23.34
2022-08-08T08:11:03.669Z,23.35
2022-08-08T08:12:03.679Z,23.42
2022-08-08T08:13:03.682Z,23.45
2022-08-08T08:14:07.706Z,23.32
2022-08-08T08:15:05.136Z,23.15
2022-08-08T08:16:03.626Z,23.04
2022-08-08T08:17:03.608Z,23.22
2022-08-08T08:18:04.637Z,23.35
2022-08-08T08:19:03.589Z,23.50
2022-08-08T08:20:03.578Z,23.52
2022-08-08T08:21:03.568Z,23.29
2022-08-08T08:22:07.790Z,23.17
2022-08-08T08:23:03.536Z,23.34
2022-08-08T08:24:03.548Z,23.47
2022-08-08T08:25:08.150Z,23.61
2022-08-08T08:26:04.491Z,23.68
2022-08-08T08:27:03.872Z,23.85
2022-08-08T08:28:03.479Z,23.65
2022-08-08T08:29:03.460Z,23.62
2022-08-08T08:30:03.484Z,23.52
2022-08-08T08:31:03.439Z,23.64
2022-08-08T08:32:05.748Z,23.87
2022-08-08T08:33:03.424Z,24.10
2022-08-08T08:34:03.499Z,24.07
2022-08-08T08:35:03.693Z,23.95
2022-08-08T08:36:19.212Z,23.85
2022-08-08T08:37:08.022Z,24.08
2022-08-08T08:38:17.143Z,24.32
2022-08-08T08:39:07.492Z,24.49
2022-08-08T08:40:04.353Z,24.57
2022-08-08T08:41:13.039Z,24.35
2022-08-08T08:42:04.348Z,24.27
2022-08-08T08:43:03.315Z,24.32
2022-08-08T08:44:13.466Z,24.52
2022-08-08T08:45:20.929Z,24.49
2022-08-08T08:46:05.716Z,24.61
2022-08-08T08:47:03.277Z,24.73
2022-08-08T08:48:04.267Z,24.73
2022-08-08T08:49:03.254Z,24.63
2022-08-08T08:50:03.239Z,24.45
2022-08-08T08:51:03.377Z,24.45
2022-08-08T08:52:03.219Z,24.32
2022-08-08T08:53:04.483Z,24.31
2022-08-08T08:54:03.242Z,24.41
2022-08-08T08:55:03.168Z,24.68
2022-08-08T08:56:03.201Z,24.95
2022-08-08T08:57:03.142Z,25.09
2022-08-08T08:58:04.149Z,25.25
2022-08-08T08:59:03.142Z,25.46
2022-08-08T09:00:05.692Z,25.64
2022-08-08T09:01:09.566Z,25.82
2022-08-08T09:02:04.161Z,25.98
2022-08-08T09:03:03.159Z,25.72
2022-08-08T09:04:03.107Z,25.53
2022-08-08T09:05:03.064Z,25.52
2022-08-08T09:06:03.051Z,25.64
2022-08-08T09:07:12.180Z,25.59
2022-08-08T09:08:12.389Z,25.39
2022-08-08T09:09:04.052Z,25.54
2022-08-08T09:10:04.810Z,25.80
2022-08-08T09:11:03.032Z,25.99
2022-08-08T09:12:07.821Z,26.20
2022-08-08T09:13:03.968Z,26.22
2022-08-08T09:14:02.956Z,26.08
2022-08-08T09:15:02.978Z,25.64
2022-08-08T09:16:03.918Z,25.39
2022-08-08T09:17:11.717Z,25.46
2022-08-08T09:18:03.964Z,25.56
2022-08-08T09:19:02.906Z,25.87
2022-08-08T09:22:01.799Z,26.21
2022-08-08T09:22:02.130Z,25.97
2022-08-08T09:22:06.439Z,26.36
2022-08-08T09:23:02.864Z,26.54
2022-08-08T09:24:04.048Z,26.58
2022-08-08T09:25:02.827Z,26.61
2022-08-08T09:26:03.174Z,26.47
2022-08-08T09:27:02.846Z,26.35
2022-08-08T09:28:03.285Z,26.15
2022-08-08T09:29:07.929Z,26.18
2022-08-08T09:30:03.807Z,26.28
2022-08-08T09:31:02.770Z,26.18
2022-08-08T09:32:03.802Z,26.42
2022-08-08T09:33:53.914Z,26.67
2022-08-08T09:34:31.394Z,26.92
2022-08-08T09:35:08.254Z,27.04
2022-08-08T09:36:02.725Z,26.89
2022-08-08T09:37:57.008Z,26.68
2022-08-08T09:38:04.167Z,26.68
2022-08-08T09:39:02.730Z,26.76
2022-08-08T09:40:03.786Z,26.87
2022-08-08T09:41:02.663Z,26.91
2022-08-08T09:42:20.907Z,27.02
2022-08-08T09:43:06.841Z,27.02
2022-08-08T09:44:06.462Z,26.92
2022-08-08T09:45:07.946Z,26.83
2022-08-08T09:46:03.484Z,26.91
2022-08-08T09:47:23.312Z,26.86
2022-08-08T09:48:17.792Z,26.89
2022-08-08T09:49:18.520Z,27.02
2022-08-08T09:50:06.483Z,27.05
2022-08-08T09:51:05.169Z,26.98
2022-08-08T09:52:06.613Z,27.01
2022-08-08T09:53:14.397Z,26.95
2022-08-08T09:54:09.496Z,26.98
2022-08-08T09:55:03.526Z,26.96
2022-08-08T09:56:05.367Z,27.24
2022-08-08T09:57:02.490Z,27.47
2022-08-08T09:58:02.472Z,27.66
2022-08-08T09:59:14.925Z,27.64
2022-08-08T10:00:34.565Z,27.61
2022-08-08T10:01:03.474Z,27.66
2022-08-08T10:02:14.433Z,27.54
2022-08-08T10:03:03.434Z,27.47
2022-08-08T10:04:08.583Z,27.51
2022-08-08T10:05:07.151Z,27.53
2022-08-08T10:06:03.493Z,27.26
2022-08-08T10:07:02.395Z,26.98
2022-08-08T10:08:03.364Z,27.06
2022-08-08T10:09:02.376Z,27.16
2022-08-08T10:10:02.351Z,27.33
2022-08-08T10:11:02.351Z,27.67
2022-08-08T10:12:26.966Z,27.70
2022-08-08T10:13:13.840Z,27.59
2022-08-08T10:14:06.132Z,27.66
2022-08-08T10:15:02.284Z,27.85
2022-08-08T10:16:05.451Z,28.03
2022-08-08T10:17:02.257Z,28.13
2022-08-08T10:18:09.003Z,28.32
2022-08-08T10:19:03.243Z,28.44
2022-08-08T10:20:03.886Z,28.46
2022-08-08T10:21:08.292Z,28.36
2022-08-08T10:22:03.239Z,28.36
2022-08-08T10:23:02.422Z,28.17
2022-08-08T10:24:02.190Z,27.96
2022-08-08T10:25:02.174Z,28.04
2022-08-08T10:26:02.157Z,28.09
2022-08-08T10:27:02.147Z,28.32
2022-08-08T10:28:02.155Z,28.36
2022-08-08T10:29:02.131Z,28.41
2022-08-08T10:30:03.834Z,28.47
2022-08-08T10:31:02.120Z,28.63
2022-08-08T10:32:02.097Z,28.81
2022-08-08T10:33:02.107Z,29.00
2022-08-08T10:34:20.177Z,29.15
2022-08-08T10:35:03.062Z,29.26
2022-08-08T10:36:20.576Z,29.22
2022-08-08T10:37:03.048Z,29.22
2022-08-08T10:38:02.038Z,28.85
2022-08-08T10:39:02.063Z,28.47
2022-08-08T10:40:06.804Z,28.54
2022-08-08T10:41:03.010Z,28.35
2022-08-08T10:42:16.842Z,28.32
2022-08-08T10:43:02.979Z,28.38
2022-08-08T10:44:02.032Z,28.44
2022-08-08T10:45:01.957Z,28.28
2022-08-08T10:46:01.953Z,28.10
2022-08-08T10:47:01.934Z,28.26
2022-08-08T10:48:01.914Z,28.31
2022-08-08T10:49:01.907Z,28.43
2022-08-08T10:50:04.548Z,28.63
2022-08-08T10:51:01.874Z,28.66
2022-08-08T10:52:01.894Z,28.29
2022-08-08T10:53:01.873Z,28.28
2022-08-08T10:54:02.371Z,28.43
2022-08-08T10:55:05.103Z,28.54
2022-08-08T10:56:01.837Z,28.75
2022-08-08T10:57:03.878Z,29.00
2022-08-08T10:58:01.826Z,29.13
2022-08-08T10:59:01.797Z,29.18
2022-08-08T11:00:01.776Z,29.19
2022-08-08T11:01:05.000Z,29.22
2022-08-08T11:02:02.829Z,29.25
2022-08-08T11:03:01.759Z,29.18
2022-08-08T11:04:02.573Z,28.80
2022-08-08T11:05:05.414Z,28.77
2022-08-08T11:06:02.739Z,28.54
2022-08-08T11:07:01.741Z,28.50
2022-08-08T11:08:38.061Z,28.69
2022-08-08T11:09:02.708Z,28.88
2022-08-08T11:10:02.674Z,29.07
2022-08-08T11:11:01.664Z,28.87
2022-08-08T11:12:13.314Z,28.91
2022-08-08T11:13:28.036Z,28.56
2022-08-08T11:14:02.671Z,28.21
2022-08-08T11:15:01.634Z,27.91
2022-08-08T11:16:08.238Z,27.99
2022-08-08T11:17:02.629Z,28.16
2022-08-08T11:18:02.382Z,28.22
2022-08-08T11:19:01.611Z,28.17
2022-08-08T11:20:06.713Z,28.28
2022-08-08T11:21:08.942Z,28.38
2022-08-08T11:22:03.948Z,28.43
2022-08-08T11:23:05.342Z,28.65
2022-08-08T11:24:02.125Z,28.90
2022-08-08T11:25:01.505Z,28.93
2022-08-08T11:26:01.496Z,28.96
2022-08-08T11:27:10.701Z,28.91
2022-08-08T11:28:02.493Z,28.81
2022-08-08T11:29:01.489Z,28.95
2022-08-08T11:30:19.687Z,28.95
2022-08-08T11:31:04.138Z,28.77
2022-08-08T11:32:01.439Z,28.66
2022-08-08T11:33:05.048Z,28.63
2022-08-08T11:34:03.041Z,28.63
2022-08-08T11:35:27.049Z,28.77
2022-08-08T11:36:02.390Z,28.82
2022-08-08T11:37:01.373Z,28.69
2022-08-08T11:38:38.691Z,28.50
2022-08-08T11:39:02.775Z,28.53
2022-08-08T11:40:01.421Z,28.47
2022-08-08T11:41:01.332Z,28.54
2022-08-08T11:42:01.358Z,28.77
2022-08-08T11:43:01.318Z,28.47
2022-08-08T11:44:01.417Z,28.04
2022-08-08T11:45:01.296Z,27.86
2022-08-08T11:46:13.312Z,27.96
2022-08-08T11:47:02.282Z,28.13
2022-08-08T11:48:04.655Z,28.41
2022-08-08T11:49:01.259Z,28.60
2022-08-08T11:50:01.235Z,28.77
2022-08-08T11:51:01.266Z,28.95
2022-08-08T11:52:03.347Z,29.04
2022-08-08T11:53:01.221Z,29.16
2022-08-08T11:54:04.191Z,29.34
2022-08-08T11:55:01.182Z,29.49
2022-08-08T11:56:01.199Z,29.68
2022-08-08T11:57:01.206Z,29.87
2022-08-08T11:58:04.233Z,29.77
2022-08-08T11:59:02.127Z,29.57
2022-08-08T12:00:05.563Z,29.63
2022-08-08T12:01:02.114Z,29.53
2022-08-08T12:02:30.466Z,29.63
2022-08-08T12:03:02.144Z,29.84
2022-08-08T12:04:01.149Z,29.86
2022-08-08T12:05:01.088Z,29.94
2022-08-08T12:06:01.055Z,30.08
2022-08-08T12:07:01.059Z,29.97
2022-08-08T12:08:01.066Z,29.94
2022-08-08T12:09:01.030Z,29.81
2022-08-08T12:10:03.774Z,29.87
2022-08-08T12:11:02.000Z,29.75
2022-08-08T12:12:01.021Z,29.93
2022-08-08T12:13:00.989Z,30.14
2022-08-08T12:14:03.442Z,30.12
2022-08-08T12:15:00.962Z,30.02
2022-08-08T12:16:00.962Z,29.81
2022-08-08T12:17:00.958Z,29.82
2022-08-08T12:18:00.970Z,29.72
2022-08-08T12:19:00.925Z,29.59
2022-08-08T12:20:00.926Z,29.74
2022-08-08T12:21:00.895Z,29.79
2022-08-08T12:22:09.233Z,29.99
2022-08-08T12:23:01.877Z,30.21
2022-08-08T12:24:00.914Z,30.43
2022-08-08T12:25:00.851Z,30.23
2022-08-08T12:26:00.875Z,30.03
2022-08-08T12:27:00.843Z,29.94
2022-08-08T12:28:00.819Z,29.92
2022-08-08T12:29:00.806Z,29.87
2022-08-08T12:30:02.175Z,29.79
2022-08-08T12:31:00.816Z,29.60
2022-08-08T12:32:02.654Z,29.57
2022-08-08T12:33:00.768Z,29.72
2022-08-08T12:34:03.399Z,29.84
2022-08-08T12:35:04.512Z,29.37
2022-08-08T12:36:01.810Z,28.90
2022-08-08T12:37:00.709Z,28.60
2022-08-08T12:38:02.059Z,28.75
2022-08-08T12:39:00.743Z,28.88
2022-08-08T12:40:02.833Z,28.91
2022-08-08T12:41:06.999Z,28.85
2022-08-08T12:42:04.699Z,28.68
2022-08-08T12:43:00.675Z,28.48
2022-08-08T12:44:01.430Z,28.47
2022-08-08T12:45:00.632Z,28.62
2022-08-08T12:46:03.506Z,28.69
2022-08-08T12:47:02.737Z,28.95
2022-08-08T12:48:09.590Z,29.07
2022-08-08T12:49:40.070Z,29.00
2022-08-08T12:50:01.577Z,28.73
2022-08-08T12:51:00.570Z,28.70